createdAt,value
2023-05-14T00:00:19.130Z,7.97
2023-05-14T00:02:45.563Z,7.60
2023-05-14T00:05:12.024Z,7.20
2023-05-14T00:07:38.385Z,7.37
2023-05-14T00:10:05.051Z,7.47
2023-05-14T00:12:32.099Z,7.57
2023-05-14T00:14:58.492Z,7.33
2023-05-14T00:17:24.866Z,8.03
2023-05-14T00:19:51.558Z,7.40
2023-05-14T00:22:17.967Z,7.20
2023-05-14T00:24:44.313Z,7.40
2023-05-14T00:27:10.766Z,7.77
2023-05-14T00:29:37.084Z,7.73
2023-05-14T00:32:03.819Z,7.40
2023-05-14T00:34:30.349Z,7.57
2023-05-14T00:36:56.625Z,7.47
2023-05-14T00:39:22.949Z,6.93
2023-05-14T00:41:49.555Z,7.93
2023-05-14T00:44:15.844Z,8.10
2023-05-14T00:46:43.566Z,8.00
2023-05-14T00:49:10.581Z,8.23
2023-05-14T00:51:37.177Z,8.90
2023-05-14T00:54:03.729Z,9.03
2023-05-14T00:56:30.185Z,8.83
2023-05-14T00:58:56.463Z,8.03
2023-05-14T01:01:23.154Z,8.67
2023-05-14T01:03:49.938Z,9.17
2023-05-14T01:06:31.204Z,8.17
2023-05-14T01:09:25.198Z,9.43
2023-05-14T01:12:13.288Z,8.50
2023-05-14T01:15:05.753Z,8.67
2023-05-14T01:17:35.834Z,8.87
2023-05-14T01:20:02.389Z,9.37
2023-05-14T01:22:28.720Z,9.17
2023-05-14T01:24:55.039Z,9.73
2023-05-14T01:27:36.557Z,9.97
2023-05-14T01:30:27.536Z,9.33
2023-05-14T01:32:57.785Z,9.20
2023-05-14T01:35:27.765Z,9.17
2023-05-14T01:38:06.481Z,10.53
2023-05-14T01:40:33.864Z,10.83
2023-05-14T01:43:00.833Z,9.80
2023-05-14T01:45:27.193Z,9.40
2023-05-14T01:47:56.022Z,9.80
2023-05-14T01:50:22.757Z,8.57
2023-05-14T01:52:49.573Z,9.20
2023-05-14T01:55:15.935Z,8.93
2023-05-14T01:57:42.296Z,9.13
2023-05-14T02:00:09.256Z,9.20
2023-05-14T02:02:35.659Z,9.37
2023-05-14T02:05:02.166Z,9.80
2023-05-14T02:07:28.580Z,10.03
2023-05-14T02:09:54.912Z,9.17
2023-05-14T02:12:21.235Z,10.33
2023-05-14T02:14:47.602Z,10.30
2023-05-14T02:17:16.478Z,10.07
2023-05-14T02:19:43.016Z,9.60
2023-05-14T02:22:09.380Z,9.87
2023-05-14T02:24:35.896Z,9.47
2023-05-14T02:27:02.286Z,9.50
2023-05-14T02:29:28.689Z,9.80
2023-05-14T02:31:55.947Z,9.43
2023-05-14T02:34:23.166Z,9.60
2023-05-14T02:36:49.558Z,9.90
2023-05-14T02:39:15.964Z,9.63
2023-05-14T02:41:42.339Z,9.90
2023-05-14T02:44:08.634Z,10.10
2023-05-14T02:46:35.060Z,9.97
2023-05-14T02:49:02.838Z,9.57
2023-05-14T02:51:29.192Z,10.43
2023-05-14T02:53:55.611Z,10.27
2023-05-14T02:56:22.482Z,9.83
2023-05-14T02:58:48.836Z,9.63
2023-05-14T03:01:15.271Z,9.57
2023-05-14T03:03:42.025Z,9.20
2023-05-14T03:06:08.764Z,9.57
2023-05-14T03:08:35.109Z,9.33
2023-05-14T03:11:01.482Z,9.40
2023-05-14T03:13:27.845Z,9.73
2023-05-14T03:15:57.027Z,10.17
2023-05-14T03:18:23.351Z,9.87
2023-05-14T03:20:49.727Z,10.03
2023-05-14T03:23:16.204Z,10.00
2023-05-14T03:25:42.515Z,10.73
2023-05-14T03:28:09.646Z,9.37
2023-05-14T03:30:36.398Z,9.57
2023-05-14T03:33:02.847Z,9.47
2023-05-14T03:35:29.306Z,9.53
2023-05-14T03:37:58.178Z,9.70
2023-05-14T03:40:25.476Z,10.03
2023-05-14T03:42:52.067Z,10.50
2023-05-14T03:45:18.381Z,10.43
2023-05-14T03:47:44.781Z,10.03
2023-05-14T03:50:11.172Z,9.97
2023-05-14T03:52:37.494Z,9.83
2023-05-14T03:55:04.079Z,10.40
2023-05-14T03:57:30.406Z,10.60
2023-05-14T03:59:56.815Z,10.73
2023-05-14T04:02:23.220Z,10.40
2023-05-14T04:04:49.702Z,11.07
2023-05-14T04:07:16.148Z,10.37
2023-05-14T04:09:42.469Z,11.00
2023-05-14T04:12:09.094Z,10.80
2023-05-14T04:14:35.463Z,10.10
2023-05-14T04:17:01.816Z,10.57
2023-05-14T04:19:28.145Z,10.43
2023-05-14T04:21:54.470Z,10.00
2023-05-14T04:24:20.794Z,10.00
2023-05-14T04:26:47.112Z,9.90
2023-05-14T04:29:13.436Z,9.93
2023-05-14T04:31:39.838Z,10.47
2023-05-14T04:34:06.170Z,10.90
2023-05-14T04:36:32.634Z,11.03
2023-05-14T04:38:59.036Z,12.40
2023-05-14T04:41:25.370Z,11.97
2023-05-14T04:43:55.312Z,10.50
2023-05-14T04:46:22.228Z,10.97
2023-05-14T04:48:48.952Z,10.93
2023-05-14T04:51:15.343Z,10.50
2023-05-14T04:53:41.707Z,11.10
2023-05-14T04:56:08.024Z,11.37
2023-05-14T04:58:35.253Z,11.00
2023-05-14T05:01:04.826Z,10.23
2023-05-14T05:03:31.295Z,9.40
2023-05-14T05:05:57.920Z,9.47
2023-05-14T05:08:24.253Z,8.73
2023-05-14T05:10:50.573Z,8.50
2023-05-14T05:13:17.016Z,8.47
2023-05-14T05:15:43.667Z,8.63
2023-05-14T05:18:10.055Z,8.03
2023-05-14T05:20:36.331Z,7.90
2023-05-14T05:23:02.699Z,7.73
2023-05-14T05:25:29.040Z,7.80
2023-05-14T05:27:55.379Z,7.37
2023-05-14T05:30:21.848Z,7.10
2023-05-14T05:32:48.453Z,6.60
2023-05-14T05:35:14.800Z,6.80
2023-05-14T05:37:41.433Z,6.33
2023-05-14T05:40:09.095Z,6.77
2023-05-14T05:42:35.472Z,6.37
2023-05-14T05:45:02.027Z,5.90
2023-05-14T05:47:28.398Z,6.20
2023-05-14T05:49:54.798Z,5.77
2023-05-14T05:52:21.084Z,4.97
2023-05-14T05:54:47.435Z,5.60
2023-05-14T05:57:13.798Z,5.07
2023-05-14T05:59:40.240Z,5.17
2023-05-14T06:02:06.718Z,5.20
2023-05-14T06:04:33.081Z,6.07
2023-05-14T06:06:59.487Z,5.20
2023-05-14T06:09:25.832Z,5.43
2023-05-14T06:11:52.206Z,5.17
2023-05-14T06:14:18.564Z,5.30
2023-05-14T06:16:45.004Z,5.07
2023-05-14T06:19:11.604Z,5.47
2023-05-14T06:21:38.195Z,5.40
2023-05-14T06:24:04.883Z,5.50
2023-05-14T06:26:31.243Z,5.20
2023-05-14T06:28:57.632Z,5.10
2023-05-14T06:31:23.977Z,4.87
2023-05-14T06:33:50.294Z,5.20
2023-05-14T06:36:16.628Z,4.83
2023-05-14T06:38:43.001Z,4.70
2023-05-14T06:41:09.288Z,4.90
2023-05-14T06:43:35.599Z,4.87
2023-05-14T06:46:01.944Z,3.90
2023-05-14T06:48:29.460Z,3.93
2023-05-14T06:50:56.152Z,3.60
2023-05-14T06:53:22.558Z,3.67
2023-05-14T06:55:48.973Z,3.30
2023-05-14T06:58:15.392Z,2.90
2023-05-14T07:00:41.828Z,3.40
2023-05-14T07:03:08.320Z,3.07
2023-05-14T07:05:34.802Z,3.07
2023-05-14T07:08:01.222Z,3.20
2023-05-14T07:10:27.620Z,3.00
2023-05-14T07:12:53.958Z,2.83
2023-05-14T07:15:21.086Z,3.00
2023-05-14T07:17:47.462Z,3.10
2023-05-14T07:20:13.836Z,3.13
2023-05-14T07:22:40.197Z,3.33
2023-05-14T07:25:07.201Z,2.83
2023-05-14T07:27:33.530Z,3.27
2023-05-14T07:29:59.860Z,3.00
2023-05-14T07:32:26.263Z,3.20
2023-05-14T07:34:52.652Z,3.30
2023-05-14T07:37:19.056Z,2.80
2023-05-14T07:39:45.520Z,3.43
2023-05-14T07:42:19.364Z,3.00
2023-05-14T07:44:51.903Z,3.17
2023-05-14T07:47:18.293Z,3.13
2023-05-14T07:49:44.735Z,3.10
2023-05-14T07:52:11.085Z,3.15
2023-05-14T07:54:38.265Z,3.03
2023-05-14T07:57:05.113Z,2.70
2023-05-14T07:59:32.021Z,2.88
2023-05-14T08:01:58.391Z,3.00
2023-05-14T08:04:24.922Z,2.88
2023-05-14T08:06:51.569Z,2.97
2023-05-14T08:09:17.861Z,3.20
2023-05-14T08:11:44.261Z,3.30
2023-05-14T08:14:10.698Z,2.83
2023-05-14T08:16:37.053Z,3.00
2023-05-14T08:19:03.451Z,2.92
2023-05-14T08:21:29.857Z,2.92
2023-05-14T08:23:56.185Z,3.05
2023-05-14T08:26:22.787Z,2.90
2023-05-14T08:28:49.088Z,2.70
2023-05-14T08:31:15.576Z,2.92
2023-05-14T08:33:41.924Z,2.78
2023-05-14T08:36:08.459Z,2.90
2023-05-14T08:38:34.877Z,2.90
2023-05-14T08:41:01.295Z,2.97
2023-05-14T08:43:37.723Z,2.70
2023-05-14T08:46:06.137Z,2.80
2023-05-14T08:48:35.045Z,2.60
2023-05-14T08:51:01.974Z,2.85
2023-05-14T08:53:28.410Z,3.30
2023-05-14T08:55:54.812Z,3.25
2023-05-14T08:58:21.264Z,3.00
2023-05-14T09:00:47.726Z,3.10
2023-05-14T09:03:14.921Z,2.90
2023-05-14T09:05:41.522Z,2.90
2023-05-14T09:08:07.948Z,3.00
2023-05-14T09:10:34.228Z,2.90
2023-05-14T09:13:00.767Z,3.10
2023-05-14T09:15:29.043Z,3.22
2023-05-14T09:17:56.673Z,2.95
2023-05-14T09:20:24.842Z,2.90
2023-05-14T09:22:54.776Z,3.10
2023-05-14T09:25:27.409Z,2.90
2023-05-14T09:27:56.110Z,2.85
2023-05-14T09:30:25.340Z,2.80
2023-05-14T09:32:54.708Z,3.00
2023-05-14T09:35:24.970Z,2.92
2023-05-14T09:37:53.126Z,2.80
2023-05-14T09:40:21.444Z,2.80
2023-05-14T09:42:49.187Z,2.80
2023-05-14T09:45:16.679Z,2.70
2023-05-14T09:47:43.234Z,2.90
2023-05-14T09:50:09.858Z,2.85
2023-05-14T09:52:37.173Z,2.60
2023-05-14T09:55:04.034Z,2.95
2023-05-14T09:57:30.894Z,2.60
2023-05-14T09:59:57.198Z,3.00
2023-05-14T10:02:29.955Z,2.58
2023-05-14T10:05:00.751Z,2.53
2023-05-14T10:07:31.711Z,2.70
2023-05-14T10:10:02.311Z,3.17
2023-05-14T10:12:34.446Z,2.92
2023-05-14T10:15:06.784Z,2.88
2023-05-14T10:17:34.751Z,3.22
2023-05-14T10:20:03.042Z,2.88
2023-05-14T10:22:33.157Z,2.70
2023-05-14T10:24:59.971Z,2.80
2023-05-14T10:27:26.717Z,2.92
2023-05-14T10:29:54.585Z,2.45
2023-05-14T10:32:24.231Z,2.83
2023-05-14T10:34:50.561Z,2.63
2023-05-14T10:37:18.815Z,2.70
2023-05-14T10:39:50.208Z,2.33
2023-05-14T10:42:23.164Z,2.35
2023-05-14T10:45:01.754Z,2.60
2023-05-14T10:47:28.945Z,3.17
2023-05-14T10:49:57.831Z,2.78
2023-05-14T10:52:25.570Z,3.08
2023-05-14T10:55:02.907Z,2.90
2023-05-14T10:57:31.592Z,3.05
2023-05-14T11:00:00.988Z,2.58
2023-05-14T11:02:30.263Z,2.65
2023-05-14T11:05:05.813Z,2.33
2023-05-14T11:07:40.245Z,2.40
2023-05-14T11:10:11.875Z,2.65
2023-05-14T11:12:40.903Z,2.13
2023-05-14T11:15:09.871Z,2.30
2023-05-14T11:17:37.557Z,2.13
2023-05-14T11:20:08.082Z,2.33
2023-05-14T11:22:36.094Z,2.20
2023-05-14T11:25:03.078Z,2.33
2023-05-14T11:27:30.660Z,2.50
2023-05-14T11:29:57.947Z,2.40
2023-05-14T11:32:24.296Z,2.38
2023-05-14T11:34:51.181Z,2.30
2023-05-14T11:37:17.697Z,2.30
2023-05-14T11:39:55.007Z,2.15
2023-05-14T11:42:22.320Z,2.25
2023-05-14T11:44:51.550Z,2.13
2023-05-14T11:47:20.233Z,2.40
2023-05-14T11:49:47.342Z,2.60
2023-05-14T11:52:14.813Z,2.50
2023-05-14T11:54:44.373Z,2.53
2023-05-14T11:57:16.313Z,2.40
2023-05-14T11:59:42.799Z,2.70
2023-05-14T12:02:12.324Z,2.38
2023-05-14T12:04:39.424Z,2.50
2023-05-14T12:07:14.577Z,2.30
2023-05-14T12:09:48.826Z,2.28
2023-05-14T12:12:18.172Z,2.42
2023-05-14T12:14:45.379Z,2.30
2023-05-14T12:17:22.608Z,2.90
2023-05-14T12:19:52.711Z,2.40
2023-05-14T12:22:21.673Z,2.63
2023-05-14T12:24:59.334Z,2.50
2023-05-14T12:27:27.632Z,2.80
2023-05-14T12:30:19.940Z,2.72
2023-05-14T12:32:51.357Z,2.50
2023-05-14T12:35:18.109Z,2.88
2023-05-14T12:37:44.429Z,2.50
2023-05-14T12:40:11.327Z,2.80
2023-05-14T12:42:37.761Z,2.53
2023-05-14T12:45:07.749Z,2.63
2023-05-14T12:47:34.514Z,2.55
2023-05-14T12:50:01.212Z,2.58
2023-05-14T12:52:37.748Z,2.40
2023-05-14T12:55:07.167Z,2.40
2023-05-14T12:57:35.069Z,2.78
2023-05-14T13:00:01.715Z,2.55
2023-05-14T13:02:28.057Z,2.50
2023-05-14T13:04:54.422Z,2.88
2023-05-14T13:07:20.999Z,2.67
2023-05-14T13:09:47.316Z,2.80
2023-05-14T13:12:13.534Z,2.70
2023-05-14T13:14:39.843Z,2.70
2023-05-14T13:17:07.996Z,2.38
2023-05-14T13:19:34.431Z,2.45
2023-05-14T13:22:00.735Z,2.80
2023-05-14T13:24:27.091Z,3.05
2023-05-14T13:26:53.453Z,2.67
2023-05-14T13:29:19.851Z,2.47
2023-05-14T13:31:46.223Z,2.40
2023-05-14T13:34:13.081Z,2.63
2023-05-14T13:36:39.778Z,2.40
2023-05-14T13:39:06.832Z,2.50
2023-05-14T13:41:37.608Z,2.40
2023-05-14T13:44:04.281Z,2.47
2023-05-14T13:46:30.744Z,2.55
2023-05-14T13:48:57.107Z,2.47
2023-05-14T13:51:23.629Z,2.40
2023-05-14T13:53:50.149Z,2.60
2023-05-14T13:56:16.451Z,3.05
2023-05-14T13:58:42.824Z,2.45
2023-05-14T14:01:09.208Z,2.78
2023-05-14T14:03:35.563Z,2.63
2023-05-14T14:06:01.860Z,2.80
2023-05-14T14:08:28.146Z,2.57
2023-05-14T14:10:55.276Z,2.63
2023-05-14T14:13:22.692Z,2.95
2023-05-14T14:15:49.854Z,2.58
2023-05-14T14:18:16.216Z,2.30
2023-05-14T14:20:42.541Z,2.55
2023-05-14T14:23:08.908Z,2.90
2023-05-14T14:25:35.274Z,3.15
2023-05-14T14:28:01.577Z,2.75
2023-05-14T14:30:28.048Z,2.67
2023-05-14T14:32:54.643Z,2.58
2023-05-14T14:35:21.174Z,2.28
2023-05-14T14:37:53.272Z,2.20
2023-05-14T14:40:19.703Z,2.28
2023-05-14T14:42:46.077Z,2.00
2023-05-14T14:45:12.648Z,2.28
2023-05-14T14:47:44.432Z,2.30
2023-05-14T14:50:11.130Z,2.40
2023-05-14T14:52:37.501Z,3.53
2023-05-14T14:55:04.140Z,2.10
2023-05-14T14:57:30.762Z,2.30
2023-05-14T14:59:57.122Z,2.20
2023-05-14T15:02:23.574Z,2.55
2023-05-14T15:04:50.820Z,2.33
2023-05-14T15:07:18.518Z,2.28
2023-05-14T15:09:45.010Z,1.98
2023-05-14T15:12:12.363Z,2.20
2023-05-14T15:14:38.660Z,2.35
2023-05-14T15:17:05.133Z,2.30
2023-05-14T15:19:32.205Z,2.50
2023-05-14T15:21:58.668Z,2.20
2023-05-14T15:24:26.051Z,2.10
2023-05-14T15:26:53.552Z,2.60
2023-05-14T15:29:20.249Z,2.78
2023-05-14T15:31:46.857Z,2.33
2023-05-14T15:34:13.416Z,1.95
2023-05-14T15:36:39.837Z,2.00
2023-05-14T15:39:06.263Z,1.83
2023-05-14T15:41:34.270Z,2.08
2023-05-14T15:44:00.719Z,2.13
2023-05-14T15:46:27.270Z,2.27
2023-05-14T15:48:53.772Z,1.90
2023-05-14T15:51:20.172Z,2.13
2023-05-14T15:53:46.788Z,2.30
2023-05-14T15:56:14.081Z,2.27
2023-05-14T15:58:40.504Z,2.10
2023-05-14T16:01:07.029Z,2.30
2023-05-14T16:03:34.032Z,2.03
2023-05-14T16:06:00.625Z,2.20
2023-05-14T16:08:26.915Z,2.17
2023-05-14T16:10:53.278Z,2.70
2023-05-14T16:13:19.653Z,2.23
2023-05-14T16:15:46.622Z,2.90
2023-05-14T16:18:12.961Z,2.60
2023-05-14T16:20:39.324Z,2.27
2023-05-14T16:23:05.724Z,2.67
2023-05-14T16:25:32.085Z,2.57
2023-05-14T16:27:58.540Z,2.20
2023-05-14T16:30:25.182Z,2.30
2023-05-14T16:32:51.722Z,2.50
2023-05-14T16:35:18.106Z,2.10
2023-05-14T16:37:44.474Z,2.30
2023-05-14T16:40:11.722Z,2.10
2023-05-14T16:42:38.481Z,2.03
2023-05-14T16:45:05.405Z,1.90
2023-05-14T16:47:31.779Z,2.10
2023-05-14T16:49:58.406Z,1.80
2023-05-14T16:52:24.856Z,1.50
2023-05-14T16:54:51.210Z,1.40
2023-05-14T16:57:17.762Z,2.00
2023-05-14T16:59:46.537Z,2.47
2023-05-14T17:02:12.895Z,2.60
2023-05-14T17:04:41.874Z,1.70
2023-05-14T17:07:08.391Z,1.50
2023-05-14T17:09:34.725Z,1.30
2023-05-14T17:12:01.183Z,1.30
2023-05-14T17:14:27.511Z,1.40
2023-05-14T17:16:56.264Z,1.70
2023-05-14T17:19:22.663Z,1.73
2023-05-14T17:21:48.982Z,1.80
2023-05-14T17:24:15.336Z,1.53
2023-05-14T17:26:41.904Z,1.83
2023-05-14T17:29:08.199Z,2.20
2023-05-14T17:31:34.590Z,2.10
2023-05-14T17:34:01.025Z,2.00
2023-05-14T17:36:28.454Z,2.00
2023-05-14T17:38:54.884Z,2.33
2023-05-14T17:41:21.496Z,2.10
2023-05-14T17:43:47.874Z,1.90
2023-05-14T17:46:14.302Z,2.00
2023-05-14T17:48:40.787Z,2.17
2023-05-14T17:51:07.117Z,2.70
2023-05-14T17:53:33.397Z,2.87
2023-05-14T17:55:59.787Z,3.07
2023-05-14T17:58:26.122Z,2.80
2023-05-14T18:00:52.883Z,3.10
2023-05-14T18:03:20.304Z,3.27
2023-05-14T18:05:47.219Z,3.40
2023-05-14T18:08:14.485Z,3.00
2023-05-14T18:10:40.814Z,3.40
2023-05-14T18:13:07.143Z,3.23
2023-05-14T18:15:33.530Z,3.50
2023-05-14T18:17:59.881Z,2.73
2023-05-14T18:20:26.290Z,3.27
2023-05-14T18:22:52.675Z,2.60
2023-05-14T18:25:19.059Z,3.00
2023-05-14T18:27:45.686Z,2.73
2023-05-14T18:30:16.822Z,2.43
2023-05-14T18:32:44.552Z,2.30
2023-05-14T18:35:11.821Z,2.60
2023-05-14T18:37:38.252Z,2.67
2023-05-14T18:40:06.812Z,2.90
2023-05-14T18:42:34.210Z,2.77
2023-05-14T18:45:01.359Z,2.40
2023-05-14T18:47:27.829Z,2.67
2023-05-14T18:49:55.768Z,2.33
2023-05-14T18:52:26.063Z,2.80
2023-05-14T18:54:53.610Z,2.30
2023-05-14T18:57:20.576Z,2.70
2023-05-14T18:59:47.039Z,2.73
2023-05-14T19:02:13.445Z,2.40
2023-05-14T19:04:51.221Z,2.53
2023-05-14T19:07:19.318Z,2.30
2023-05-14T19:09:45.708Z,2.47
2023-05-14T19:12:12.524Z,2.30
2023-05-14T19:14:38.888Z,2.50
2023-05-14T19:17:05.729Z,2.70
2023-05-14T19:19:32.537Z,2.50
2023-05-14T19:21:58.859Z,2.90
2023-05-14T19:24:25.208Z,2.30
2023-05-14T19:26:51.586Z,2.20
2023-05-14T19:29:17.891Z,2.70
2023-05-14T19:31:44.257Z,2.40
2023-05-14T19:34:10.735Z,2.37
2023-05-14T19:36:37.086Z,2.50
2023-05-14T19:39:03.826Z,2.90
2023-05-14T19:41:30.225Z,2.53
2023-05-14T19:43:56.546Z,2.90
2023-05-14T19:46:22.909Z,2.50
2023-05-14T19:48:49.286Z,2.70
2023-05-14T19:51:15.639Z,2.57
2023-05-14T19:53:41.955Z,2.63
2023-05-14T19:56:08.271Z,2.87
2023-05-14T19:58:34.633Z,2.73
2023-05-14T20:01:01.016Z,2.60
2023-05-14T20:03:27.466Z,2.53
2023-05-14T20:05:55.176Z,2.80
2023-05-14T20:08:21.552Z,2.70
2023-05-14T20:10:48.363Z,2.30
2023-05-14T20:13:14.960Z,2.40
2023-05-14T20:15:42.535Z,2.63
2023-05-14T20:18:09.244Z,2.53
2023-05-14T20:20:35.832Z,2.53
2023-05-14T20:23:02.172Z,2.40
2023-05-14T20:25:28.872Z,2.40
2023-05-14T20:27:55.340Z,2.23
2023-05-14T20:30:21.679Z,2.70
2023-05-14T20:32:48.068Z,2.30
2023-05-14T20:35:14.589Z,2.63
2023-05-14T20:37:41.307Z,2.40
2023-05-14T20:40:10.629Z,2.70
2023-05-14T20:42:37.014Z,2.50
2023-05-14T20:45:03.768Z,2.40
2023-05-14T20:47:31.810Z,2.73
2023-05-14T20:49:58.280Z,2.70
2023-05-14T20:52:24.734Z,3.00
2023-05-14T20:54:51.086Z,2.63
2023-05-14T20:57:18.987Z,2.80
2023-05-14T20:59:45.954Z,2.73
2023-05-14T21:02:12.593Z,3.20
2023-05-14T21:04:39.197Z,3.13
2023-05-14T21:07:06.738Z,2.80
2023-05-14T21:09:33.188Z,2.60
2023-05-14T21:11:59.650Z,2.93
2023-05-14T21:14:25.950Z,2.80
2023-05-14T21:16:52.278Z,3.17
2023-05-14T21:19:18.623Z,3.20
2023-05-14T21:21:45.545Z,3.00
2023-05-14T21:24:11.852Z,3.23
2023-05-14T21:26:40.245Z,3.40
2023-05-14T21:29:06.805Z,3.10
2023-05-14T21:31:33.130Z,3.37
2023-05-14T21:33:59.512Z,3.20
2023-05-14T21:36:25.908Z,3.20
2023-05-14T21:38:53.106Z,3.20
2023-05-14T21:41:19.534Z,3.17
2023-05-14T21:43:45.880Z,3.47
2023-05-14T21:46:12.252Z,3.17
2023-05-14T21:48:38.739Z,2.90
2023-05-14T21:51:05.370Z,3.30
2023-05-14T21:53:31.706Z,3.57
2023-05-14T21:55:58.060Z,2.90
2023-05-14T21:58:24.424Z,3.17
2023-05-14T22:00:50.830Z,3.80
2023-05-14T22:03:17.281Z,3.90
2023-05-14T22:05:43.801Z,3.53
2023-05-14T22:08:10.854Z,3.23
2023-05-14T22:10:37.203Z,3.63
2023-05-14T22:13:03.602Z,3.33
2023-05-14T22:15:29.923Z,3.40
2023-05-14T22:17:56.858Z,3.33
2023-05-14T22:20:25.378Z,3.43
2023-05-14T22:22:51.825Z,2.97
2023-05-14T22:25:18.159Z,3.67
2023-05-14T22:27:44.551Z,3.60
2023-05-14T22:30:11.233Z,3.50
2023-05-14T22:32:37.593Z,3.37
2023-05-14T22:35:04.329Z,3.70
2023-05-14T22:37:30.653Z,3.73
2023-05-14T22:39:57.043Z,3.80
2023-05-14T22:42:23.425Z,3.40
2023-05-14T22:44:49.727Z,3.10
2023-05-14T22:47:16.327Z,3.47
2023-05-14T22:49:43.536Z,3.57
2023-05-14T22:52:10.131Z,3.70
2023-05-14T22:54:36.507Z,4.17
2023-05-14T22:57:03.581Z,3.43
2023-05-14T22:59:29.895Z,3.47
2023-05-14T23:01:56.299Z,3.70
2023-05-14T23:04:22.771Z,3.70
2023-05-14T23:06:49.277Z,3.63
2023-05-14T23:09:15.681Z,3.27
2023-05-14T23:11:42.060Z,3.70
2023-05-14T23:14:08.890Z,3.50
2023-05-14T23:16:35.491Z,3.73
2023-05-14T23:19:01.895Z,3.80
2023-05-14T23:21:28.392Z,3.80
2023-05-14T23:23:54.681Z,3.70
2023-05-14T23:26:21.689Z,3.40
2023-05-14T23:28:48.009Z,3.37
2023-05-14T23:31:14.336Z,3.60
2023-05-14T23:33:41.084Z,3.50
2023-05-14T23:36:07.980Z,3.77
2023-05-14T23:38:34.416Z,4.00
2023-05-14T23:41:00.761Z,3.77
2023-05-14T23:43:27.113Z,3.97
2023-05-14T23:45:53.930Z,4.00
2023-05-14T23:48:20.491Z,4.00
2023-05-14T23:50:46.811Z,3.50
2023-05-14T23:53:13.209Z,3.97
2023-05-14T23:55:39.795Z,3.77
2023-05-14T23:58:06.235Z,4.00
